Ponciano Arriaga International Airport
MMSP : rendu visible

Aérodrome :











RETROUVEZ-NOUS SUR...

 
LOGIN :

S'inscrire | Disclaimer

   EN    FR    IT 

 









Légende :    VFR   VFR Marginal   IFR   IFR Intensif   IFR Très Intensif
Visi : 
Plafond : 
>= 8 km
>= 3000ft
5 à 8 km
1000 à 3000 ft
1500m à 5 km
500 à 1000 ft
800 à 1500m
200 à 500 ft
< 800m
< 200 ft
Symboles :   Orages  Brouillard  Fortes neiges  Fortes précipitations  Vent > 20 kt






- Altitude de l'aérodrome : 6035 ft
- Code IATA : SLP


MMSP - Ponciano Arriaga International

DERNIER METAR :
  • 140046Z 07005KT 10SM SKC 19/00 A3019

METARs EXPIRÉS :
  • 132349Z 03004KT 12SM SKC 23/M02 A3017 RMK SLP113 57009 961
  • 132252Z 34005KT 15SM SKC 25/M04 A3016

TAF TAF MMSP
Valide du 14 à 00h jusqu'au 15 à 06h UTC


132258Z 1400/1506 34006KT P6SM SKC TX26/1421Z TN05/1412Z
FM140400 00000KT P6SM SKC
BECMG 1410/1411 4SM HZ
FM141600 14006KT P6SM SKC
FM141900 14010KT P6SM SCT025
FM150300 18005KT P6SM SKC



MET'MAP, la Météo Aéronautique d'un coup d'oeil ! - Copyright ORBIFLY Décembre 2007 - Disclaimer

ORBIFLY MET'MAP TEAM :

Programmation & Développement : Alexandra Zaïnal
Sur une idée originale de : Baudouin d'Aumeries
Assistance à la programmation : Marc-Olivier Méhu
Soutien technique & logistique : Manuel Goepfert

Contact : metmap@orbifly.com




SOURCES & CREDITS :

   NOAA       Earth
Advisory